sensor_id;sensor_type;location;lat;lon;timestamp;temperature;humidity
9837;DHT22;4957;51.412;6.724;2023-05-10T00:01:47;16.90;97.70
9837;DHT22;4957;51.412;6.724;2023-05-10T00:04:13;16.90;97.70
9837;DHT22;4957;51.412;6.724;2023-05-10T00:06:39;16.90;97.70
9837;DHT22;4957;51.412;6.724;2023-05-10T00:09:05;16.90;97.60
9837;DHT22;4957;51.412;6.724;2023-05-10T00:11:30;16.90;97.40
9837;DHT22;4957;51.412;6.724;2023-05-10T00:13:56;16.80;97.40
9837;DHT22;4957;51.412;6.724;2023-05-10T00:16:22;16.80;97.80
9837;DHT22;4957;51.412;6.724;2023-05-10T00:18:47;16.90;97.80
9837;DHT22;4957;51.412;6.724;2023-05-10T00:21:13;16.80;97.90
9837;DHT22;4957;51.412;6.724;2023-05-10T00:23:39;16.80;97.80
9837;DHT22;4957;51.412;6.724;2023-05-10T00:26:04;16.80;97.90
9837;DHT22;4957;51.412;6.724;2023-05-10T00:28:30;16.80;97.90
9837;DHT22;4957;51.412;6.724;2023-05-10T00:30:56;16.80;98.00
9837;DHT22;4957;51.412;6.724;2023-05-10T00:33:21;16.80;97.90
9837;DHT22;4957;51.412;6.724;2023-05-10T00:35:47;16.80;97.80
9837;DHT22;4957;51.412;6.724;2023-05-10T00:38:13;16.80;97.90
9837;DHT22;4957;51.412;6.724;2023-05-10T00:40:39;16.80;97.90
9837;DHT22;4957;51.412;6.724;2023-05-10T00:43:05;16.70;97.70
9837;DHT22;4957;51.412;6.724;2023-05-10T00:45:33;16.70;97.70
9837;DHT22;4957;51.412;6.724;2023-05-10T00:48:04;16.70;97.60
9837;DHT22;4957;51.412;6.724;2023-05-10T00:50:31;16.70;97.90
9837;DHT22;4957;51.412;6.724;2023-05-10T00:52:59;16.70;97.80
9837;DHT22;4957;51.412;6.724;2023-05-10T00:55:25;16.70;97.80
9837;DHT22;4957;51.412;6.724;2023-05-10T00:57:52;16.70;97.90
9837;DHT22;4957;51.412;6.724;2023-05-10T01:00:18;16.60;97.90
9837;DHT22;4957;51.412;6.724;2023-05-10T01:02:45;16.70;97.90
9837;DHT22;4957;51.412;6.724;2023-05-10T01:05:12;16.60;97.60
9837;DHT22;4957;51.412;6.724;2023-05-10T01:07:38;16.60;97.60
9837;DHT22;4957;51.412;6.724;2023-05-10T01:10:06;16.60;97.50
9837;DHT22;4957;51.412;6.724;2023-05-10T01:12:33;16.50;97.80
9837;DHT22;4957;51.412;6.724;2023-05-10T01:15:00;16.50;97.70
9837;DHT22;4957;51.412;6.724;2023-05-10T01:17:26;16.50;97.80
9837;DHT22;4957;51.412;6.724;2023-05-10T01:19:52;16.50;97.80
9837;DHT22;4957;51.412;6.724;2023-05-10T01:22:42;16.50;97.70
9837;DHT22;4957;51.412;6.724;2023-05-10T01:31:28;16.40;97.70
9837;DHT22;4957;51.412;6.724;2023-05-10T01:34:01;16.40;97.70
9837;DHT22;4957;51.412;6.724;2023-05-10T01:39:17;16.30;97.80
9837;DHT22;4957;51.412;6.724;2023-05-10T01:44:37;16.40;98.00
9837;DHT22;4957;51.412;6.724;2023-05-10T01:47:11;16.30;97.80
9837;DHT22;4957;51.412;6.724;2023-05-10T01:49:50;16.30;97.80
9837;DHT22;4957;51.412;6.724;2023-05-10T01:52:18;16.30;97.80
9837;DHT22;4957;51.412;6.724;2023-05-10T01:54:50;16.30;97.80
9837;DHT22;4957;51.412;6.724;2023-05-10T01:57:22;16.30;97.60
9837;DHT22;4957;51.412;6.724;2023-05-10T01:59:50;16.20;97.70
9837;DHT22;4957;51.412;6.724;2023-05-10T02:02:18;16.20;97.50
9837;DHT22;4957;51.412;6.724;2023-05-10T02:04:46;16.20;97.60
9837;DHT22;4957;51.412;6.724;2023-05-10T02:07:14;16.10;97.60
9837;DHT22;4957;51.412;6.724;2023-05-10T02:09:42;16.10;97.70
9837;DHT22;4957;51.412;6.724;2023-05-10T02:12:09;16.10;97.70
9837;DHT22;4957;51.412;6.724;2023-05-10T02:14:37;16.10;97.50
9837;DHT22;4957;51.412;6.724;2023-05-10T02:17:05;16.10;97.80
9837;DHT22;4957;51.412;6.724;2023-05-10T02:19:32;16.10;97.70
9837;DHT22;4957;51.412;6.724;2023-05-10T02:21:59;16.10;97.90
9837;DHT22;4957;51.412;6.724;2023-05-10T02:24:27;16.00;97.90
9837;DHT22;4957;51.412;6.724;2023-05-10T02:26:54;16.00;97.90
9837;DHT22;4957;51.412;6.724;2023-05-10T02:29:23;16.00;97.80
9837;DHT22;4957;51.412;6.724;2023-05-10T02:31:53;16.00;97.90
9837;DHT22;4957;51.412;6.724;2023-05-10T02:34:21;16.00;98.00
9837;DHT22;4957;51.412;6.724;2023-05-10T02:36:48;16.00;97.90
9837;DHT22;4957;51.412;6.724;2023-05-10T02:39:14;15.90;97.90
9837;DHT22;4957;51.412;6.724;2023-05-10T02:41:42;15.90;98.00
9837;DHT22;4957;51.412;6.724;2023-05-10T02:44:09;15.90;98.10
9837;DHT22;4957;51.412;6.724;2023-05-10T02:46:36;15.90;98.20
9837;DHT22;4957;51.412;6.724;2023-05-10T02:49:03;15.90;98.10
9837;DHT22;4957;51.412;6.724;2023-05-10T02:51:31;15.90;98.10
9837;DHT22;4957;51.412;6.724;2023-05-10T02:54:04;15.90;98.20
9837;DHT22;4957;51.412;6.724;2023-05-10T02:56:34;15.90;98.30
9837;DHT22;4957;51.412;6.724;2023-05-10T02:59:01;15.80;98.20
9837;DHT22;4957;51.412;6.724;2023-05-10T03:01:26;15.80;98.30
9837;DHT22;4957;51.412;6.724;2023-05-10T03:03:52;15.80;98.70
9837;DHT22;4957;51.412;6.724;2023-05-10T03:06:18;15.80;98.50
9837;DHT22;4957;51.412;6.724;2023-05-10T03:08:44;15.70;98.60
9837;DHT22;4957;51.412;6.724;2023-05-10T03:14:13;15.80;98.90
9837;DHT22;4957;51.412;6.724;2023-05-10T03:16:52;15.80;98.70
9837;DHT22;4957;51.412;6.724;2023-05-10T03:19:38;15.80;98.70
9837;DHT22;4957;51.412;6.724;2023-05-10T03:22:10;15.80;98.70
9837;DHT22;4957;51.412;6.724;2023-05-10T03:24:36;15.80;98.80
9837;DHT22;4957;51.412;6.724;2023-05-10T03:27:05;15.80;98.70
9837;DHT22;4957;51.412;6.724;2023-05-10T03:29:32;15.80;98.70
9837;DHT22;4957;51.412;6.724;2023-05-10T03:31:59;15.80;98.60
9837;DHT22;4957;51.412;6.724;2023-05-10T03:34:25;15.70;98.60
9837;DHT22;4957;51.412;6.724;2023-05-10T03:36:51;15.80;98.70
9837;DHT22;4957;51.412;6.724;2023-05-10T03:39:17;15.80;98.80
9837;DHT22;4957;51.412;6.724;2023-05-10T03:41:43;15.80;98.70
9837;DHT22;4957;51.412;6.724;2023-05-10T03:44:08;15.70;98.70
9837;DHT22;4957;51.412;6.724;2023-05-10T03:46:34;15.80;98.90
9837;DHT22;4957;51.412;6.724;2023-05-10T03:49:00;15.70;99.00
9837;DHT22;4957;51.412;6.724;2023-05-10T03:51:25;15.70;99.00
9837;DHT22;4957;51.412;6.724;2023-05-10T03:53:54;15.70;98.90
9837;DHT22;4957;51.412;6.724;2023-05-10T03:56:20;15.70;99.10
9837;DHT22;4957;51.412;6.724;2023-05-10T03:58:46;15.70;99.20
9837;DHT22;4957;51.412;6.724;2023-05-10T04:01:12;15.70;99.10
9837;DHT22;4957;51.412;6.724;2023-05-10T04:03:37;15.70;99.20
9837;DHT22;4957;51.412;6.724;2023-05-10T04:06:03;15.70;99.30
9837;DHT22;4957;51.412;6.724;2023-05-10T04:08:29;15.70;99.30
9837;DHT22;4957;51.412;6.724;2023-05-10T04:11:08;15.70;99.30
9837;DHT22;4957;51.412;6.724;2023-05-10T04:13:34;15.70;99.70
9837;DHT22;4957;51.412;6.724;2023-05-10T04:16:00;15.70;99.40
9837;DHT22;4957;51.412;6.724;2023-05-10T04:18:26;15.70;99.70
9837;DHT22;4957;51.412;6.724;2023-05-10T04:20:51;15.70;99.70
9837;DHT22;4957;51.412;6.724;2023-05-10T04:23:17;15.70;99.70
9837;DHT22;4957;51.412;6.724;2023-05-10T04:25:43;15.70;99.80
9837;DHT22;4957;51.412;6.724;2023-05-10T04:28:09;15.70;99.90
9837;DHT22;4957;51.412;6.724;2023-05-10T04:30:34;15.70;99.90
9837;DHT22;4957;51.412;6.724;2023-05-10T04:33:01;15.70;99.90
9837;DHT22;4957;51.412;6.724;2023-05-10T04:35:29;15.70;99.90
9837;DHT22;4957;51.412;6.724;2023-05-10T04:37:55;15.70;99.90
9837;DHT22;4957;51.412;6.724;2023-05-10T04:40:21;15.70;99.90
9837;DHT22;4957;51.412;6.724;2023-05-10T04:42:47;15.70;99.90
9837;DHT22;4957;51.412;6.724;2023-05-10T04:45:13;15.70;99.90
9837;DHT22;4957;51.412;6.724;2023-05-10T04:47:40;15.70;99.90
9837;DHT22;4957;51.412;6.724;2023-05-10T04:50:06;15.70;99.90
9837;DHT22;4957;51.412;6.724;2023-05-10T04:52:32;15.70;99.90
9837;DHT22;4957;51.412;6.724;2023-05-10T04:54:58;15.70;99.90
9837;DHT22;4957;51.412;6.724;2023-05-10T04:57:23;15.70;99.90
9837;DHT22;4957;51.412;6.724;2023-05-10T04:59:49;15.70;99.90
9837;DHT22;4957;51.412;6.724;2023-05-10T05:02:15;15.70;99.90
9837;DHT22;4957;51.412;6.724;2023-05-10T05:04:40;15.70;99.90
9837;DHT22;4957;51.412;6.724;2023-05-10T05:07:06;15.70;99.90
9837;DHT22;4957;51.412;6.724;2023-05-10T05:09:32;15.70;99.90
9837;DHT22;4957;51.412;6.724;2023-05-10T05:11:58;15.70;99.90
9837;DHT22;4957;51.412;6.724;2023-05-10T05:14:24;15.70;99.90
9837;DHT22;4957;51.412;6.724;2023-05-10T05:16:52;15.70;99.90
9837;DHT22;4957;51.412;6.724;2023-05-10T05:19:18;15.70;99.90
9837;DHT22;4957;51.412;6.724;2023-05-10T05:21:44;15.80;99.90
9837;DHT22;4957;51.412;6.724;2023-05-10T05:24:10;15.80;99.90
9837;DHT22;4957;51.412;6.724;2023-05-10T05:26:36;15.80;99.90
9837;DHT22;4957;51.412;6.724;2023-05-10T05:29:02;15.80;99.90
9837;DHT22;4957;51.412;6.724;2023-05-10T05:31:28;15.80;99.90
9837;DHT22;4957;51.412;6.724;2023-05-10T05:33:54;15.80;99.90
9837;DHT22;4957;51.412;6.724;2023-05-10T05:36:21;15.90;99.90
9837;DHT22;4957;51.412;6.724;2023-05-10T05:38:47;15.90;99.90
9837;DHT22;4957;51.412;6.724;2023-05-10T05:41:13;15.90;99.90
9837;DHT22;4957;51.412;6.724;2023-05-10T05:43:39;15.90;99.90
9837;DHT22;4957;51.412;6.724;2023-05-10T05:46:04;16.00;99.90
9837;DHT22;4957;51.412;6.724;2023-05-10T05:48:31;16.00;99.90
9837;DHT22;4957;51.412;6.724;2023-05-10T05:50:57;16.00;99.90
9837;DHT22;4957;51.412;6.724;2023-05-10T05:53:23;15.90;99.90
9837;DHT22;4957;51.412;6.724;2023-05-10T05:55:56;16.00;99.90
9837;DHT22;4957;51.412;6.724;2023-05-10T05:58:24;16.00;99.90
9837;DHT22;4957;51.412;6.724;2023-05-10T06:00:50;16.00;99.90
9837;DHT22;4957;51.412;6.724;2023-05-10T06:03:17;16.00;99.90
9837;DHT22;4957;51.412;6.724;2023-05-10T06:05:44;16.00;99.90
9837;DHT22;4957;51.412;6.724;2023-05-10T06:08:10;16.00;99.90
9837;DHT22;4957;51.412;6.724;2023-05-10T06:10:36;16.10;99.90
9837;DHT22;4957;51.412;6.724;2023-05-10T06:13:02;16.10;99.90
9837;DHT22;4957;51.412;6.724;2023-05-10T06:15:27;16.10;99.90
9837;DHT22;4957;51.412;6.724;2023-05-10T06:17:53;16.10;99.90
9837;DHT22;4957;51.412;6.724;2023-05-10T06:20:19;16.10;99.90
9837;DHT22;4957;51.412;6.724;2023-05-10T06:22:44;16.00;99.90
9837;DHT22;4957;51.412;6.724;2023-05-10T06:25:10;16.10;99.90
9837;DHT22;4957;51.412;6.724;2023-05-10T06:27:37;16.10;99.90
9837;DHT22;4957;51.412;6.724;2023-05-10T06:30:03;16.10;99.90
9837;DHT22;4957;51.412;6.724;2023-05-10T06:32:29;16.10;99.90
9837;DHT22;4957;51.412;6.724;2023-05-10T06:34:54;16.10;99.90
9837;DHT22;4957;51.412;6.724;2023-05-10T06:37:20;16.10;99.90
9837;DHT22;4957;51.412;6.724;2023-05-10T06:39:46;16.10;99.90
9837;DHT22;4957;51.412;6.724;2023-05-10T06:42:11;16.10;99.90
9837;DHT22;4957;51.412;6.724;2023-05-10T06:44:37;16.10;99.90
9837;DHT22;4957;51.412;6.724;2023-05-10T06:47:03;16.10;99.90
9837;DHT22;4957;51.412;6.724;2023-05-10T06:49:28;16.10;99.90
9837;DHT22;4957;51.412;6.724;2023-05-10T06:51:55;16.10;99.90
9837;DHT22;4957;51.412;6.724;2023-05-10T06:54:21;16.10;99.90
9837;DHT22;4957;51.412;6.724;2023-05-10T06:56:47;16.20;99.90
9837;DHT22;4957;51.412;6.724;2023-05-10T06:59:12;16.20;99.90
9837;DHT22;4957;51.412;6.724;2023-05-10T07:01:39;16.20;99.90
9837;DHT22;4957;51.412;6.724;2023-05-10T07:04:05;16.20;99.90
9837;DHT22;4957;51.412;6.724;2023-05-10T07:06:30;16.20;99.90
9837;DHT22;4957;51.412;6.724;2023-05-10T07:08:56;16.20;99.90
9837;DHT22;4957;51.412;6.724;2023-05-10T07:11:22;16.20;99.90
9837;DHT22;4957;51.412;6.724;2023-05-10T07:13:48;16.20;99.90
9837;DHT22;4957;51.412;6.724;2023-05-10T07:16:13;16.20;99.90
9837;DHT22;4957;51.412;6.724;2023-05-10T07:18:39;16.20;99.90
9837;DHT22;4957;51.412;6.724;2023-05-10T07:21:05;16.30;99.90
9837;DHT22;4957;51.412;6.724;2023-05-10T07:23:31;16.30;99.90
9837;DHT22;4957;51.412;6.724;2023-05-10T07:25:57;16.30;99.90
9837;DHT22;4957;51.412;6.724;2023-05-10T07:28:23;16.30;99.90
9837;DHT22;4957;51.412;6.724;2023-05-10T07:30:51;16.30;99.90
9837;DHT22;4957;51.412;6.724;2023-05-10T07:33:17;16.40;99.90
9837;DHT22;4957;51.412;6.724;2023-05-10T07:35:43;16.40;99.90
9837;DHT22;4957;51.412;6.724;2023-05-10T07:38:09;16.50;99.90
9837;DHT22;4957;51.412;6.724;2023-05-10T07:40:36;16.50;99.90
9837;DHT22;4957;51.412;6.724;2023-05-10T07:43:02;16.50;99.90
9837;DHT22;4957;51.412;6.724;2023-05-10T07:45:28;16.60;99.90
9837;DHT22;4957;51.412;6.724;2023-05-10T07:47:54;16.60;99.90
9837;DHT22;4957;51.412;6.724;2023-05-10T07:50:20;16.70;99.90
9837;DHT22;4957;51.412;6.724;2023-05-10T07:52:47;16.70;99.90
9837;DHT22;4957;51.412;6.724;2023-05-10T07:55:13;16.70;99.90
9837;DHT22;4957;51.412;6.724;2023-05-10T07:57:39;16.80;99.90
9837;DHT22;4957;51.412;6.724;2023-05-10T08:00:05;16.80;99.90
9837;DHT22;4957;51.412;6.724;2023-05-10T08:02:33;16.80;99.90
9837;DHT22;4957;51.412;6.724;2023-05-10T08:04:59;16.90;99.90
9837;DHT22;4957;51.412;6.724;2023-05-10T08:07:25;17.00;99.90
9837;DHT22;4957;51.412;6.724;2023-05-10T08:09:50;17.00;99.90
9837;DHT22;4957;51.412;6.724;2023-05-10T08:12:16;17.10;99.90
9837;DHT22;4957;51.412;6.724;2023-05-10T08:14:42;17.10;99.90
9837;DHT22;4957;51.412;6.724;2023-05-10T08:17:07;17.20;99.90
9837;DHT22;4957;51.412;6.724;2023-05-10T08:19:33;17.30;99.90
9837;DHT22;4957;51.412;6.724;2023-05-10T08:21:59;17.30;99.90
9837;DHT22;4957;51.412;6.724;2023-05-10T08:24:25;17.40;99.90
9837;DHT22;4957;51.412;6.724;2023-05-10T08:26:50;17.40;99.90
9837;DHT22;4957;51.412;6.724;2023-05-10T08:29:16;17.40;99.90
9837;DHT22;4957;51.412;6.724;2023-05-10T08:31:42;17.50;99.90
9837;DHT22;4957;51.412;6.724;2023-05-10T08:34:07;17.50;99.90
9837;DHT22;4957;51.412;6.724;2023-05-10T08:36:33;17.60;99.90
9837;DHT22;4957;51.412;6.724;2023-05-10T08:39:00;17.60;99.90
9837;DHT22;4957;51.412;6.724;2023-05-10T08:41:25;17.70;99.90
9837;DHT22;4957;51.412;6.724;2023-05-10T08:43:52;17.70;99.90
9837;DHT22;4957;51.412;6.724;2023-05-10T08:46:19;17.70;99.90
9837;DHT22;4957;51.412;6.724;2023-05-10T08:48:46;17.80;99.90
9837;DHT22;4957;51.412;6.724;2023-05-10T08:51:14;17.90;99.90
9837;DHT22;4957;51.412;6.724;2023-05-10T08:53:41;17.90;99.90
9837;DHT22;4957;51.412;6.724;2023-05-10T08:56:07;17.90;99.90
9837;DHT22;4957;51.412;6.724;2023-05-10T08:58:32;18.00;99.90
9837;DHT22;4957;51.412;6.724;2023-05-10T09:00:59;18.00;99.90
9837;DHT22;4957;51.412;6.724;2023-05-10T09:03:26;18.00;99.90
9837;DHT22;4957;51.412;6.724;2023-05-10T09:05:51;18.10;99.90
9837;DHT22;4957;51.412;6.724;2023-05-10T09:08:17;18.10;99.90
9837;DHT22;4957;51.412;6.724;2023-05-10T09:10:44;18.20;99.90
9837;DHT22;4957;51.412;6.724;2023-05-10T09:13:13;18.20;99.90
9837;DHT22;4957;51.412;6.724;2023-05-10T09:15:40;18.30;99.90
9837;DHT22;4957;51.412;6.724;2023-05-10T09:18:06;18.30;99.90
9837;DHT22;4957;51.412;6.724;2023-05-10T09:20:32;18.30;99.90
9837;DHT22;4957;51.412;6.724;2023-05-10T09:22:57;18.40;99.90
9837;DHT22;4957;51.412;6.724;2023-05-10T09:25:23;18.40;99.90
9837;DHT22;4957;51.412;6.724;2023-05-10T09:27:49;18.50;99.90
9837;DHT22;4957;51.412;6.724;2023-05-10T09:30:17;18.50;99.90
9837;DHT22;4957;51.412;6.724;2023-05-10T09:32:45;18.50;99.90
9837;DHT22;4957;51.412;6.724;2023-05-10T09:35:15;18.50;99.90
9837;DHT22;4957;51.412;6.724;2023-05-10T09:37:43;18.60;99.90
9837;DHT22;4957;51.412;6.724;2023-05-10T09:40:21;18.60;99.90
9837;DHT22;4957;51.412;6.724;2023-05-10T09:45:27;18.70;99.90
9837;DHT22;4957;51.412;6.724;2023-05-10T09:47:53;18.70;99.90
9837;DHT22;4957;51.412;6.724;2023-05-10T09:50:19;18.80;99.90
9837;DHT22;4957;51.412;6.724;2023-05-10T09:52:56;18.70;99.90
9837;DHT22;4957;51.412;6.724;2023-05-10T09:58:01;18.80;99.90
9837;DHT22;4957;51.412;6.724;2023-05-10T10:00:28;18.80;99.90
9837;DHT22;4957;51.412;6.724;2023-05-10T10:03:01;18.80;99.90
9837;DHT22;4957;51.412;6.724;2023-05-10T10:05:31;18.80;99.90
9837;DHT22;4957;51.412;6.724;2023-05-10T10:07:58;18.80;99.90
9837;DHT22;4957;51.412;6.724;2023-05-10T10:10:27;18.80;99.90
9837;DHT22;4957;51.412;6.724;2023-05-10T10:12:54;18.80;99.90
9837;DHT22;4957;51.412;6.724;2023-05-10T10:15:21;18.70;99.90
9837;DHT22;4957;51.412;6.724;2023-05-10T10:17:48;18.80;99.90
9837;DHT22;4957;51.412;6.724;2023-05-10T10:20:15;18.80;99.90
9837;DHT22;4957;51.412;6.724;2023-05-10T10:22:41;18.80;99.90
9837;DHT22;4957;51.412;6.724;2023-05-10T10:25:08;18.80;99.90
9837;DHT22;4957;51.412;6.724;2023-05-10T10:30:48;18.80;99.90
9837;DHT22;4957;51.412;6.724;2023-05-10T10:33:40;18.80;99.90
9837;DHT22;4957;51.412;6.724;2023-05-10T10:36:09;18.80;99.90
9837;DHT22;4957;51.412;6.724;2023-05-10T10:38:55;18.80;99.90
9837;DHT22;4957;51.412;6.724;2023-05-10T10:41:39;18.80;99.90
9837;DHT22;4957;51.412;6.724;2023-05-10T10:54:57;18.90;99.90
9837;DHT22;4957;51.412;6.724;2023-05-10T10:57:25;18.80;99.90
9837;DHT22;4957;51.412;6.724;2023-05-10T11:00:37;18.80;99.90
9837;DHT22;4957;51.412;6.724;2023-05-10T11:08:08;18.80;99.90
9837;DHT22;4957;51.412;6.724;2023-05-10T11:10:34;18.80;99.90
9837;DHT22;4957;51.412;6.724;2023-05-10T11:13:04;18.70;99.90
9837;DHT22;4957;51.412;6.724;2023-05-10T11:15:38;18.80;99.90
9837;DHT22;4957;51.412;6.724;2023-05-10T11:18:23;18.80;99.90
9837;DHT22;4957;51.412;6.724;2023-05-10T11:20:59;18.80;99.90
9837;DHT22;4957;51.412;6.724;2023-05-10T11:26:09;19.00;99.90
9837;DHT22;4957;51.412;6.724;2023-05-10T11:29:02;19.00;99.90
9837;DHT22;4957;51.412;6.724;2023-05-10T11:31:30;19.10;99.90
9837;DHT22;4957;51.412;6.724;2023-05-10T11:33:57;19.10;99.90
9837;DHT22;4957;51.412;6.724;2023-05-10T11:36:25;19.20;99.90
9837;DHT22;4957;51.412;6.724;2023-05-10T11:38:51;19.30;99.90
9837;DHT22;4957;51.412;6.724;2023-05-10T11:41:19;19.30;99.90
9837;DHT22;4957;51.412;6.724;2023-05-10T11:43:52;19.40;99.90
9837;DHT22;4957;51.412;6.724;2023-05-10T11:46:20;19.40;99.70
9837;DHT22;4957;51.412;6.724;2023-05-10T11:48:50;19.50;99.50
9837;DHT22;4957;51.412;6.724;2023-05-10T11:51:22;19.50;99.30
9837;DHT22;4957;51.412;6.724;2023-05-10T11:53:50;19.60;99.20
9837;DHT22;4957;51.412;6.724;2023-05-10T11:56:16;19.60;99.00
9837;DHT22;4957;51.412;6.724;2023-05-10T11:58:42;19.60;98.90
9837;DHT22;4957;51.412;6.724;2023-05-10T12:01:08;19.70;98.70
9837;DHT22;4957;51.412;6.724;2023-05-10T12:03:35;19.70;98.60
9837;DHT22;4957;51.412;6.724;2023-05-10T12:06:02;19.70;98.50
9837;DHT22;4957;51.412;6.724;2023-05-10T12:08:29;19.70;98.40
9837;DHT22;4957;51.412;6.724;2023-05-10T12:11:09;19.70;98.40
9837;DHT22;4957;51.412;6.724;2023-05-10T12:13:40;19.80;98.40
9837;DHT22;4957;51.412;6.724;2023-05-10T12:16:20;19.80;98.30
9837;DHT22;4957;51.412;6.724;2023-05-10T12:18:50;19.80;98.20
9837;DHT22;4957;51.412;6.724;2023-05-10T12:21:20;19.80;98.20
9837;DHT22;4957;51.412;6.724;2023-05-10T12:23:47;19.90;98.20
9837;DHT22;4957;51.412;6.724;2023-05-10T12:26:14;20.00;98.00
9837;DHT22;4957;51.412;6.724;2023-05-10T12:28:40;20.00;97.90
9837;DHT22;4957;51.412;6.724;2023-05-10T12:31:06;20.00;97.70
9837;DHT22;4957;51.412;6.724;2023-05-10T12:33:42;20.10;97.60
9837;DHT22;4957;51.412;6.724;2023-05-10T12:36:09;20.10;97.50
9837;DHT22;4957;51.412;6.724;2023-05-10T12:38:44;20.20;97.40
9837;DHT22;4957;51.412;6.724;2023-05-10T12:41:12;20.30;97.20
9837;DHT22;4957;51.412;6.724;2023-05-10T12:43:38;20.40;96.90
9837;DHT22;4957;51.412;6.724;2023-05-10T12:46:06;20.50;96.90
9837;DHT22;4957;51.412;6.724;2023-05-10T12:48:32;20.60;96.80
9837;DHT22;4957;51.412;6.724;2023-05-10T12:50:59;20.80;96.60
9837;DHT22;4957;51.412;6.724;2023-05-10T12:53:25;20.90;96.30
9837;DHT22;4957;51.412;6.724;2023-05-10T12:55:51;21.00;96.10
9837;DHT22;4957;51.412;6.724;2023-05-10T12:58:17;21.10;95.80
9837;DHT22;4957;51.412;6.724;2023-05-10T13:00:42;21.20;95.40
9837;DHT22;4957;51.412;6.724;2023-05-10T13:03:09;21.30;95.20
9837;DHT22;4957;51.412;6.724;2023-05-10T13:05:36;21.40;94.90
9837;DHT22;4957;51.412;6.724;2023-05-10T13:08:01;21.50;94.60
9837;DHT22;4957;51.412;6.724;2023-05-10T13:10:29;21.60;94.50
9837;DHT22;4957;51.412;6.724;2023-05-10T13:12:56;21.70;94.40
9837;DHT22;4957;51.412;6.724;2023-05-10T13:15:22;21.80;94.30
9837;DHT22;4957;51.412;6.724;2023-05-10T13:17:47;21.90;94.40
9837;DHT22;4957;51.412;6.724;2023-05-10T13:20:13;22.00;94.40
9837;DHT22;4957;51.412;6.724;2023-05-10T13:22:40;22.20;94.00
9837;DHT22;4957;51.412;6.724;2023-05-10T13:25:06;22.30;94.40
9837;DHT22;4957;51.412;6.724;2023-05-10T13:27:32;22.40;93.70
9837;DHT22;4957;51.412;6.724;2023-05-10T13:29:58;22.50;93.20
9837;DHT22;4957;51.412;6.724;2023-05-10T13:32:25;22.60;93.20
9837;DHT22;4957;51.412;6.724;2023-05-10T13:34:51;22.60;92.90
9837;DHT22;4957;51.412;6.724;2023-05-10T13:37:17;22.70;92.50
9837;DHT22;4957;51.412;6.724;2023-05-10T13:39:42;22.80;92.20
9837;DHT22;4957;51.412;6.724;2023-05-10T13:42:08;22.90;92.10
9837;DHT22;4957;51.412;6.724;2023-05-10T13:44:34;23.00;93.10
9837;DHT22;4957;51.412;6.724;2023-05-10T13:46:59;23.00;92.20
9837;DHT22;4957;51.412;6.724;2023-05-10T13:49:25;23.10;92.00
9837;DHT22;4957;51.412;6.724;2023-05-10T13:51:51;23.20;91.50
9837;DHT22;4957;51.412;6.724;2023-05-10T13:54:17;23.30;90.90
9837;DHT22;4957;51.412;6.724;2023-05-10T13:56:45;23.40;90.80
9837;DHT22;4957;51.412;6.724;2023-05-10T13:59:13;23.40;90.40
9837;DHT22;4957;51.412;6.724;2023-05-10T14:01:42;23.50;90.40
9837;DHT22;4957;51.412;6.724;2023-05-10T14:04:11;23.50;89.40
9837;DHT22;4957;51.412;6.724;2023-05-10T14:06:37;23.60;89.80
9837;DHT22;4957;51.412;6.724;2023-05-10T14:09:03;23.60;90.70
9837;DHT22;4957;51.412;6.724;2023-05-10T14:11:28;23.70;89.60
9837;DHT22;4957;51.412;6.724;2023-05-10T14:13:54;23.70;88.60
9837;DHT22;4957;51.412;6.724;2023-05-10T14:16:20;23.70;87.40
9837;DHT22;4957;51.412;6.724;2023-05-10T14:18:46;23.70;86.70
9837;DHT22;4957;51.412;6.724;2023-05-10T14:21:12;23.70;86.50
9837;DHT22;4957;51.412;6.724;2023-05-10T14:23:38;23.70;85.60
9837;DHT22;4957;51.412;6.724;2023-05-10T14:26:04;23.70;85.30
9837;DHT22;4957;51.412;6.724;2023-05-10T14:28:30;23.70;87.20
9837;DHT22;4957;51.412;6.724;2023-05-10T14:30:55;23.60;85.60
9837;DHT22;4957;51.412;6.724;2023-05-10T14:33:21;23.60;85.20
9837;DHT22;4957;51.412;6.724;2023-05-10T14:35:47;23.60;85.80
9837;DHT22;4957;51.412;6.724;2023-05-10T14:38:13;23.60;85.90
9837;DHT22;4957;51.412;6.724;2023-05-10T14:40:39;23.60;85.50
9837;DHT22;4957;51.412;6.724;2023-05-10T14:43:05;23.60;85.00
9837;DHT22;4957;51.412;6.724;2023-05-10T14:45:31;23.60;85.20
9837;DHT22;4957;51.412;6.724;2023-05-10T14:47:57;23.60;85.10
9837;DHT22;4957;51.412;6.724;2023-05-10T14:50:23;23.60;84.20
9837;DHT22;4957;51.412;6.724;2023-05-10T14:52:49;23.60;84.60
9837;DHT22;4957;51.412;6.724;2023-05-10T14:55:15;23.70;83.70
9837;DHT22;4957;51.412;6.724;2023-05-10T14:57:41;23.70;83.80
9837;DHT22;4957;51.412;6.724;2023-05-10T15:00:07;23.70;83.60
9837;DHT22;4957;51.412;6.724;2023-05-10T15:02:33;23.70;83.30
9837;DHT22;4957;51.412;6.724;2023-05-10T15:04:59;23.70;82.80
9837;DHT22;4957;51.412;6.724;2023-05-10T15:07:25;23.70;82.70
9837;DHT22;4957;51.412;6.724;2023-05-10T15:09:51;23.70;82.70
9837;DHT22;4957;51.412;6.724;2023-05-10T15:12:18;23.70;82.40
9837;DHT22;4957;51.412;6.724;2023-05-10T15:14:44;23.70;82.20
9837;DHT22;4957;51.412;6.724;2023-05-10T15:17:10;23.80;82.30
9837;DHT22;4957;51.412;6.724;2023-05-10T15:19:36;23.80;82.40
9837;DHT22;4957;51.412;6.724;2023-05-10T15:22:03;23.80;82.50
9837;DHT22;4957;51.412;6.724;2023-05-10T15:24:29;23.80;82.60
9837;DHT22;4957;51.412;6.724;2023-05-10T15:26:54;23.80;83.00
9837;DHT22;4957;51.412;6.724;2023-05-10T15:29:20;23.80;83.70
9837;DHT22;4957;51.412;6.724;2023-05-10T15:31:52;23.70;83.30
9837;DHT22;4957;51.412;6.724;2023-05-10T15:34:18;23.70;81.90
9837;DHT22;4957;51.412;6.724;2023-05-10T15:36:44;23.60;82.80
9837;DHT22;4957;51.412;6.724;2023-05-10T15:39:10;23.60;82.70
9837;DHT22;4957;51.412;6.724;2023-05-10T15:41:36;23.50;82.30
9837;DHT22;4957;51.412;6.724;2023-05-10T15:44:02;23.50;82.40
9837;DHT22;4957;51.412;6.724;2023-05-10T15:46:28;23.40;82.20
9837;DHT22;4957;51.412;6.724;2023-05-10T15:48:54;23.30;82.00
9837;DHT22;4957;51.412;6.724;2023-05-10T15:51:20;23.20;82.10
9837;DHT22;4957;51.412;6.724;2023-05-10T15:53:46;23.10;83.50
9837;DHT22;4957;51.412;6.724;2023-05-10T15:56:11;23.00;82.60
9837;DHT22;4957;51.412;6.724;2023-05-10T15:58:38;22.90;81.90
9837;DHT22;4957;51.412;6.724;2023-05-10T16:01:03;22.80;82.30
9837;DHT22;4957;51.412;6.724;2023-05-10T16:03:33;22.70;82.90
9837;DHT22;4957;51.412;6.724;2023-05-10T16:05:59;22.60;82.70
9837;DHT22;4957;51.412;6.724;2023-05-10T16:08:26;22.50;83.20
9837;DHT22;4957;51.412;6.724;2023-05-10T16:10:52;22.40;84.00
9837;DHT22;4957;51.412;6.724;2023-05-10T16:13:18;22.30;84.30
9837;DHT22;4957;51.412;6.724;2023-05-10T16:15:43;22.30;85.20
9837;DHT22;4957;51.412;6.724;2023-05-10T16:18:09;22.20;85.50
9837;DHT22;4957;51.412;6.724;2023-05-10T16:20:36;22.00;86.00
9837;DHT22;4957;51.412;6.724;2023-05-10T16:23:03;21.90;86.70
9837;DHT22;4957;51.412;6.724;2023-05-10T16:25:30;21.80;87.40
9837;DHT22;4957;51.412;6.724;2023-05-10T16:27:56;21.70;88.00
9837;DHT22;4957;51.412;6.724;2023-05-10T16:30:21;21.70;88.70
9837;DHT22;4957;51.412;6.724;2023-05-10T16:32:49;21.50;89.00
9837;DHT22;4957;51.412;6.724;2023-05-10T16:35:15;21.40;89.70
9837;DHT22;4957;51.412;6.724;2023-05-10T16:37:41;21.30;90.00
9837;DHT22;4957;51.412;6.724;2023-05-10T16:40:07;21.30;90.30
9837;DHT22;4957;51.412;6.724;2023-05-10T16:42:33;21.20;90.50
9837;DHT22;4957;51.412;6.724;2023-05-10T16:44:58;21.10;90.70